createdAt,value
2023-04-02T00:00:37.711Z,75.63
2023-04-02T00:03:10.810Z,76.03
2023-04-02T00:05:51.179Z,76.15
2023-04-02T00:08:28.592Z,77.22
2023-04-02T00:11:00.445Z,76.76
2023-04-02T00:13:37.374Z,75.92
2023-04-02T00:16:08.294Z,75.11
2023-04-02T00:18:43.017Z,75.70
2023-04-02T00:21:24.587Z,75.78
2023-04-02T00:23:55.363Z,75.62
2023-04-02T00:26:32.241Z,75.25
2023-04-02T00:29:05.802Z,75.98
2023-04-02T00:31:35.157Z,76.55
2023-04-02T00:34:05.181Z,75.89
2023-04-02T00:36:34.963Z,75.85
2023-04-02T00:39:05.292Z,76.15
2023-04-02T00:41:36.522Z,75.53
2023-04-02T00:44:04.163Z,76.15
2023-04-02T00:46:47.517Z,76.28
2023-04-02T00:49:41.753Z,76.94
2023-04-02T00:52:19.231Z,76.72
2023-04-02T00:54:52.652Z,75.37
2023-04-02T00:57:25.938Z,75.40
2023-04-02T01:00:00.062Z,75.97
2023-04-02T01:02:31.259Z,75.07
2023-04-02T01:05:02.866Z,75.71
2023-04-02T01:07:46.178Z,75.74
2023-04-02T01:10:49.017Z,76.11
2023-04-02T01:13:48.277Z,75.04
2023-04-02T01:16:32.681Z,74.84
2023-04-02T01:19:02.425Z,75.83
2023-04-02T01:21:53.154Z,75.21
2023-04-02T01:24:22.207Z,76.92
2023-04-02T01:27:21.918Z,75.26
2023-04-02T01:29:57.080Z,74.37
2023-04-02T01:32:28.864Z,75.49
2023-04-02T01:34:57.098Z,74.54
2023-04-02T01:37:53.578Z,75.81
2023-04-02T01:40:38.918Z,74.26
2023-04-02T01:43:21.394Z,75.26
2023-04-02T01:45:48.627Z,75.73
2023-04-02T01:48:20.187Z,74.97
2023-04-02T01:50:51.865Z,74.02
2023-04-02T01:53:22.395Z,75.21
2023-04-02T01:55:53.557Z,76.71
2023-04-02T01:58:27.855Z,75.13
2023-04-02T02:01:15.863Z,74.53
2023-04-02T02:03:45.275Z,75.05
2023-04-02T02:06:18.423Z,75.63
2023-04-02T02:08:48.330Z,75.14
2023-04-02T02:11:19.268Z,75.49
2023-04-02T02:13:55.383Z,76.04
2023-04-02T02:16:23.874Z,75.28
2023-04-02T02:18:57.834Z,75.17
2023-04-02T02:21:40.160Z,75.41
2023-04-02T02:24:31.039Z,76.11
2023-04-02T02:27:09.209Z,75.55
2023-04-02T02:29:41.318Z,76.46
2023-04-02T02:32:11.643Z,75.68
2023-04-02T02:34:48.714Z,77.06
2023-04-02T02:37:25.164Z,77.30
2023-04-02T02:39:55.950Z,75.77
2023-04-02T02:42:33.169Z,76.60
2023-04-02T02:45:05.505Z,76.12
2023-04-02T02:47:36.648Z,76.13
2023-04-02T02:50:18.646Z,76.40
2023-04-02T02:52:51.250Z,76.39
2023-04-02T02:55:20.553Z,76.64
2023-04-02T02:58:37.313Z,77.76
2023-04-02T03:01:22.534Z,76.71
2023-04-02T03:03:55.624Z,77.68
2023-04-02T03:06:24.966Z,77.63
2023-04-02T03:09:05.786Z,77.89
2023-04-02T03:12:04.646Z,76.88
2023-04-02T03:14:51.727Z,76.61
2023-04-02T03:17:45.767Z,78.08
2023-04-02T03:20:31.243Z,77.02
2023-04-02T03:23:29.686Z,76.69
2023-04-02T03:26:00.681Z,77.48
2023-04-02T03:28:33.197Z,77.40
2023-04-02T03:31:09.213Z,77.97
2023-04-02T03:33:42.918Z,77.68
2023-04-02T03:36:20.502Z,76.55
2023-04-02T03:39:06.258Z,76.86
2023-04-02T03:41:59.460Z,76.49
2023-04-02T03:44:48.681Z,77.53
2023-04-02T03:47:25.543Z,76.27
2023-04-02T03:50:13.149Z,78.53
2023-04-02T03:52:40.987Z,76.48
2023-04-02T03:55:20.427Z,78.63
2023-04-02T03:58:12.329Z,76.90
2023-04-02T04:00:55.872Z,76.63
2023-04-02T04:03:36.991Z,77.52
2023-04-02T04:06:07.786Z,77.25
2023-04-02T04:08:44.103Z,76.85
2023-04-02T04:11:18.328Z,78.37
2023-04-02T04:14:18.836Z,77.07
2023-04-02T04:16:57.369Z,77.87
2023-04-02T04:19:39.723Z,78.26
2023-04-02T04:22:20.349Z,76.81
2023-04-02T04:24:51.398Z,77.66
2023-04-02T04:27:43.247Z,77.80
2023-04-02T04:30:29.330Z,77.78
2023-04-02T04:33:06.051Z,77.38
2023-04-02T04:35:44.219Z,77.16
2023-04-02T04:38:28.536Z,77.58
2023-04-02T04:41:05.811Z,78.07
2023-04-02T04:43:53.895Z,76.72
2023-04-02T04:47:08.012Z,76.58
2023-04-02T04:49:57.287Z,78.21
2023-04-02T04:52:28.442Z,77.35
2023-04-02T04:54:56.168Z,76.28
2023-04-02T04:57:35.678Z,77.29
2023-04-02T05:00:13.960Z,77.22
2023-04-02T05:03:06.472Z,77.45
2023-04-02T05:05:39.300Z,76.44
2023-04-02T05:08:21.353Z,77.39
2023-04-02T05:10:55.558Z,77.17
2023-04-02T05:13:39.695Z,77.01
2023-04-02T05:16:16.630Z,77.37
2023-04-02T05:18:51.626Z,78.41
2023-04-02T05:21:42.609Z,77.04
2023-04-02T05:24:39.204Z,77.69
2023-04-02T05:27:16.883Z,77.48
2023-04-02T05:29:50.628Z,78.26
2023-04-02T05:32:32.527Z,77.35
2023-04-02T05:35:00.366Z,76.18
2023-04-02T05:37:30.949Z,77.21
2023-04-02T05:40:13.822Z,76.43
2023-04-02T05:42:48.176Z,77.15
2023-04-02T05:45:15.160Z,77.57
2023-04-02T05:47:45.985Z,75.65
2023-04-02T05:50:43.647Z,76.44
2023-04-02T05:53:22.471Z,76.08
2023-04-02T05:56:18.242Z,75.47
2023-04-02T05:59:15.690Z,75.08
2023-04-02T06:02:07.658Z,75.39
2023-04-02T06:05:01.602Z,75.55
2023-04-02T06:07:49.191Z,76.09
2023-04-02T06:10:49.001Z,75.89
2023-04-02T06:13:20.435Z,73.48
2023-04-02T06:15:48.466Z,73.40
2023-04-02T06:18:27.797Z,71.64
2023-04-02T06:20:58.133Z,71.66
2023-04-02T06:23:46.999Z,68.78
2023-04-02T06:26:27.469Z,69.58
2023-04-02T06:29:04.401Z,65.48
2023-04-02T06:31:45.888Z,64.76
2023-04-02T06:34:18.613Z,65.54
2023-04-02T06:37:10.341Z,65.13
2023-04-02T06:39:37.842Z,63.73
2023-04-02T06:42:20.987Z,63.20
2023-04-02T06:45:25.965Z,62.26
2023-04-02T06:48:21.873Z,62.27
2023-04-02T06:51:01.525Z,63.08
2023-04-02T06:53:36.573Z,62.46
2023-04-02T06:56:40.993Z,62.50
2023-04-02T06:59:08.893Z,61.38
2023-04-02T07:02:04.866Z,62.22
2023-04-02T07:04:33.291Z,62.18
2023-04-02T07:07:00.776Z,60.75
2023-04-02T07:09:33.228Z,60.97
2023-04-02T07:12:02.799Z,61.55
2023-04-02T07:14:30.342Z,61.75
2023-04-02T07:16:57.698Z,61.34
2023-04-02T07:19:24.869Z,60.99
2023-04-02T07:21:56.303Z,60.36
2023-04-02T07:24:25.556Z,61.39
2023-04-02T07:26:52.806Z,61.07
2023-04-02T07:29:20.245Z,60.21
2023-04-02T07:31:47.793Z,60.24
2023-04-02T07:34:15.063Z,61.64
2023-04-02T07:36:42.338Z,59.51
2023-04-02T07:39:09.588Z,59.52
2023-04-02T07:41:59.957Z,59.69
2023-04-02T07:44:27.901Z,58.98
2023-04-02T07:46:55.662Z,58.44
2023-04-02T07:49:23.205Z,58.86
2023-04-02T07:51:52.287Z,57.57
2023-04-02T07:54:19.485Z,57.71
2023-04-02T07:56:46.956Z,59.05
2023-04-02T07:59:14.210Z,58.29
2023-04-02T08:01:43.376Z,57.94
2023-04-02T08:04:22.593Z,57.73
2023-04-02T08:06:50.789Z,56.95
2023-04-02T08:09:18.130Z,57.13
2023-04-02T08:11:46.874Z,55.58
2023-04-02T08:14:14.613Z,54.87
2023-04-02T08:16:49.265Z,52.43
2023-04-02T08:19:17.240Z,52.52
2023-04-02T08:21:45.410Z,52.00
2023-04-02T08:24:12.622Z,52.67
2023-04-02T08:26:39.850Z,49.60
2023-04-02T08:29:07.236Z,49.50
2023-04-02T08:31:34.409Z,47.89
2023-04-02T08:34:02.010Z,47.67
2023-04-02T08:36:38.786Z,48.12
2023-04-02T08:39:11.371Z,46.02
2023-04-02T08:41:50.803Z,45.11
2023-04-02T08:44:47.150Z,45.49
2023-04-02T08:47:17.615Z,45.04
2023-04-02T08:50:04.987Z,44.80
2023-04-02T08:52:38.778Z,43.35
2023-04-02T08:55:33.298Z,43.85
2023-04-02T08:58:34.120Z,41.51
2023-04-02T09:01:04.671Z,40.35
2023-04-02T09:03:44.998Z,39.96
2023-04-02T09:06:17.207Z,39.70
2023-04-02T09:08:47.385Z,38.64
2023-04-02T09:11:39.087Z,38.72
2023-04-02T09:14:32.710Z,37.49
2023-04-02T09:17:03.367Z,37.48
2023-04-02T09:19:44.949Z,37.35
2023-04-02T09:22:18.270Z,39.00
2023-04-02T09:24:51.130Z,39.48
2023-04-02T09:27:24.188Z,40.28
2023-04-02T09:30:01.175Z,41.81
2023-04-02T09:32:48.520Z,41.74
2023-04-02T09:35:36.423Z,41.83
2023-04-02T09:38:24.282Z,43.12
2023-04-02T09:41:01.721Z,43.11
2023-04-02T09:43:32.186Z,43.21
2023-04-02T09:46:02.445Z,44.39
2023-04-02T09:48:35.102Z,45.40
2023-04-02T09:51:07.602Z,45.05
2023-04-02T09:53:40.513Z,45.24
2023-04-02T09:56:22.072Z,45.27
2023-04-02T09:59:15.768Z,45.39
2023-04-02T10:01:48.298Z,45.93
2023-04-02T10:04:37.123Z,45.75
2023-04-02T10:07:06.916Z,46.20
2023-04-02T10:09:37.413Z,46.69
2023-04-02T10:12:14.596Z,46.48
2023-04-02T10:14:48.847Z,47.13
2023-04-02T10:17:22.422Z,47.34
2023-04-02T10:19:56.524Z,47.43
2023-04-02T10:22:23.908Z,47.81
2023-04-02T10:24:51.463Z,47.76
2023-04-02T10:27:33.900Z,47.72
2023-04-02T10:30:11.758Z,47.34
2023-04-02T10:33:01.490Z,46.65
2023-04-02T10:35:41.562Z,45.50
2023-04-02T10:38:17.614Z,44.94
2023-04-02T10:41:17.033Z,45.23
2023-04-02T10:43:51.181Z,45.04
2023-04-02T10:46:25.621Z,45.96
2023-04-02T10:48:56.116Z,48.03
2023-04-02T10:51:47.935Z,50.05
2023-04-02T10:54:43.504Z,51.63
2023-04-02T10:57:22.852Z,52.63
2023-04-02T11:00:11.435Z,54.62
2023-04-02T11:03:00.247Z,55.56
2023-04-02T11:05:33.222Z,56.68
2023-04-02T11:08:07.441Z,57.56
2023-04-02T11:10:39.914Z,57.25
2023-04-02T11:13:24.580Z,57.24
2023-04-02T11:15:52.214Z,56.50
2023-04-02T11:18:38.988Z,56.12
2023-04-02T11:21:54.837Z,56.10
2023-04-02T11:24:32.270Z,55.25
2023-04-02T11:27:31.132Z,55.36
2023-04-02T11:30:16.327Z,53.48
2023-04-02T11:32:47.746Z,55.08
2023-04-02T11:35:26.993Z,53.42
2023-04-02T11:37:57.243Z,52.63
2023-04-02T11:40:45.317Z,52.22
2023-04-02T11:43:34.593Z,53.89
2023-04-02T11:46:34.920Z,54.14
2023-04-02T11:49:40.305Z,53.96
2023-04-02T11:52:29.310Z,55.87
2023-04-02T11:55:24.946Z,57.67
2023-04-02T11:58:02.720Z,58.43
2023-04-02T12:01:01.876Z,59.85
2023-04-02T12:04:10.871Z,60.68
2023-04-02T12:07:13.201Z,61.88
2023-04-02T12:09:45.890Z,62.57
2023-04-02T12:12:17.940Z,63.30
2023-04-02T12:14:51.378Z,64.42
2023-04-02T12:17:18.842Z,64.35
2023-04-02T12:19:54.887Z,65.02
2023-04-02T12:22:32.301Z,65.62
2023-04-02T12:25:07.456Z,65.96
2023-04-02T12:27:38.667Z,66.27
2023-04-02T12:30:23.070Z,66.95
2023-04-02T12:32:50.757Z,66.59
2023-04-02T12:35:34.525Z,67.52
2023-04-02T12:38:02.554Z,67.81
2023-04-02T12:40:30.139Z,68.04
2023-04-02T12:42:57.361Z,65.56
2023-04-02T12:45:31.694Z,66.17
2023-04-02T12:48:03.656Z,66.26
2023-04-02T12:50:31.057Z,66.26
2023-04-02T12:52:59.425Z,65.92
2023-04-02T12:55:27.862Z,65.82
2023-04-02T12:58:00.023Z,66.55
2023-04-02T13:00:30.315Z,66.90
2023-04-02T13:03:17.349Z,66.79
2023-04-02T13:05:56.697Z,66.67
2023-04-02T13:08:28.317Z,66.42
2023-04-02T13:11:01.639Z,66.50
2023-04-02T13:13:35.292Z,66.46
2023-04-02T13:16:07.220Z,66.60
2023-04-02T13:18:37.669Z,66.58
2023-04-02T13:21:07.663Z,67.09
2023-04-02T13:23:38.067Z,66.40
2023-04-02T13:26:22.340Z,65.64
2023-04-02T13:29:22.237Z,64.44
2023-04-02T13:31:50.196Z,64.26
2023-04-02T13:34:18.655Z,63.88
2023-04-02T13:36:46.873Z,63.59
2023-04-02T13:39:14.482Z,62.96
2023-04-02T13:41:43.570Z,63.38
2023-04-02T13:44:26.328Z,64.07
2023-04-02T13:46:54.830Z,64.38
2023-04-02T13:49:24.138Z,64.23
2023-04-02T13:52:00.878Z,63.09
2023-04-02T13:54:37.740Z,63.78
2023-04-02T13:57:05.007Z,64.09
2023-04-02T13:59:32.218Z,63.98
2023-04-02T14:02:17.993Z,64.36
2023-04-02T14:04:53.131Z,61.77
2023-04-02T14:07:47.391Z,64.53
2023-04-02T14:10:31.945Z,67.11
2023-04-02T14:13:17.062Z,70.26
2023-04-02T14:16:21.748Z,71.70
2023-04-02T14:18:54.872Z,72.94
2023-04-02T14:21:28.088Z,74.74
2023-04-02T14:24:14.962Z,76.30
2023-04-02T14:27:11.512Z,77.17
2023-04-02T14:30:02.735Z,79.41
2023-04-02T14:32:51.843Z,81.12
2023-04-02T14:35:29.339Z,81.37
2023-04-02T14:38:02.511Z,81.69
2023-04-02T14:40:42.530Z,82.22
2023-04-02T14:43:21.645Z,82.41
2023-04-02T14:46:01.987Z,82.14
2023-04-02T14:48:51.613Z,81.88
2023-04-02T14:51:41.118Z,81.11
2023-04-02T14:54:50.550Z,80.06
2023-04-02T14:57:21.886Z,77.95
2023-04-02T15:00:06.621Z,77.52
2023-04-02T15:02:45.246Z,77.68
2023-04-02T15:05:34.887Z,77.37
2023-04-02T15:08:07.412Z,77.38
2023-04-02T15:10:34.696Z,77.55
2023-04-02T15:13:08.445Z,77.64
2023-04-02T15:15:44.629Z,78.31
2023-04-02T15:18:16.142Z,77.51
2023-04-02T15:20:55.368Z,78.65
2023-04-02T15:23:55.364Z,79.09
2023-04-02T15:26:35.084Z,79.22
2023-04-02T15:29:29.533Z,78.59
2023-04-02T15:32:08.676Z,78.56
2023-04-02T15:34:45.226Z,77.56
2023-04-02T15:37:28.878Z,77.66
2023-04-02T15:40:21.614Z,77.81
2023-04-02T15:43:21.630Z,77.90
2023-04-02T15:46:00.778Z,78.32
2023-04-02T15:48:41.186Z,79.14
2023-04-02T15:51:13.736Z,79.59
2023-04-02T15:53:56.327Z,79.93
2023-04-02T15:57:04.737Z,78.56
2023-04-02T16:00:09.520Z,79.02
2023-04-02T16:03:03.061Z,78.34
2023-04-02T16:05:44.741Z,78.71
2023-04-02T16:08:36.645Z,79.25
2023-04-02T16:11:07.318Z,79.09
2023-04-02T16:13:37.362Z,79.59
2023-04-02T16:16:06.669Z,79.94
2023-04-02T16:18:59.123Z,80.09
2023-04-02T16:21:39.029Z,80.34
2023-04-02T16:24:15.332Z,80.52
2023-04-02T16:27:15.151Z,80.83
2023-04-02T16:29:55.501Z,81.38
2023-04-02T16:32:41.323Z,81.12
2023-04-02T16:38:21.642Z,81.08
2023-04-02T16:41:17.910Z,81.42
2023-04-02T16:43:50.757Z,82.24
2023-04-02T16:46:45.627Z,82.06
2023-04-02T16:49:31.553Z,81.31
2023-04-02T16:52:08.701Z,81.24
2023-04-02T16:55:04.581Z,80.39
2023-04-02T16:57:49.531Z,80.47
2023-04-02T17:00:23.381Z,80.66
2023-04-02T17:02:50.737Z,81.40
2023-04-02T17:05:32.729Z,81.60
2023-04-02T17:08:16.799Z,80.79
2023-04-02T17:11:01.249Z,80.97
2023-04-02T17:13:47.700Z,80.56
2023-04-02T17:16:29.053Z,81.26
2023-04-02T17:19:00.200Z,80.82
2023-04-02T17:21:31.558Z,80.73
2023-04-02T17:24:06.870Z,80.78
2023-04-02T17:26:37.935Z,80.04
2023-04-02T17:29:09.728Z,79.94
2023-04-02T17:31:38.470Z,78.74
2023-04-02T17:34:17.650Z,77.79
2023-04-02T17:36:57.584Z,78.59
2023-04-02T17:39:36.170Z,77.64
2023-04-02T17:42:13.152Z,78.49
2023-04-02T17:44:59.199Z,77.92
2023-04-02T17:47:52.689Z,78.24
2023-04-02T17:50:35.810Z,78.08
2023-04-02T17:53:34.282Z,78.13
2023-04-02T17:56:13.820Z,77.36
2023-04-02T17:58:41.060Z,77.77
2023-04-02T18:01:20.819Z,78.39
2023-04-02T18:04:32.452Z,78.51
2023-04-02T18:07:07.760Z,79.15
2023-04-02T18:09:37.723Z,79.60
2023-04-02T18:12:50.336Z,79.72
2023-04-02T18:15:46.520Z,80.30
2023-04-02T18:18:35.271Z,79.74
2023-04-02T18:21:32.255Z,79.58
2023-04-02T18:24:08.034Z,79.27
2023-04-02T18:26:50.450Z,78.94
2023-04-02T18:29:56.410Z,79.32
2023-04-02T18:32:44.568Z,78.84
2023-04-02T18:35:26.824Z,77.00
2023-04-02T18:38:11.857Z,76.94
2023-04-02T18:41:22.137Z,76.82
2023-04-02T18:43:57.457Z,75.99
2023-04-02T18:46:53.332Z,77.79
2023-04-02T18:49:37.446Z,77.61
2023-04-02T18:52:14.788Z,78.21
2023-04-02T18:54:53.013Z,78.25
2023-04-02T18:57:26.703Z,78.22
2023-04-02T19:00:19.295Z,78.18
2023-04-02T19:02:57.090Z,77.27
2023-04-02T19:05:36.754Z,77.33
2023-04-02T19:08:36.606Z,77.00
2023-04-02T19:11:16.344Z,77.13
2023-04-02T19:13:45.477Z,78.03
2023-04-02T19:16:24.708Z,78.17
2023-04-02T19:19:12.187Z,78.20
2023-04-02T19:21:39.319Z,77.79
2023-04-02T19:24:24.378Z,78.09
2023-04-02T19:27:06.189Z,77.68
2023-04-02T19:29:50.197Z,77.01
2023-04-02T19:32:26.362Z,77.25
2023-04-02T19:35:23.840Z,76.37
2023-04-02T19:38:09.318Z,76.02
2023-04-02T19:40:55.288Z,75.50
2023-04-02T19:43:22.536Z,75.81
2023-04-02T19:45:50.158Z,74.19
2023-04-02T19:48:20.406Z,75.09
2023-04-02T19:50:49.753Z,75.22
2023-04-02T19:53:17.482Z,75.24
2023-04-02T19:55:45.870Z,75.94
2023-04-02T19:58:25.466Z,76.33
2023-04-02T20:00:52.696Z,74.59
2023-04-02T20:03:20.184Z,75.19
2023-04-02T20:05:47.578Z,75.15
2023-04-02T20:08:15.186Z,75.10
2023-04-02T20:10:43.079Z,75.17
2023-04-02T20:13:10.450Z,75.62
2023-04-02T20:15:40.199Z,75.35
2023-04-02T20:18:07.688Z,75.10
2023-04-02T20:20:35.284Z,74.68
2023-04-02T20:23:02.780Z,75.73
2023-04-02T20:25:29.959Z,75.95
2023-04-02T20:27:57.232Z,76.52
2023-04-02T20:30:24.509Z,76.01
2023-04-02T20:32:51.833Z,76.86
2023-04-02T20:35:19.032Z,76.41
2023-04-02T20:37:46.292Z,75.92
2023-04-02T20:40:13.643Z,76.36
2023-04-02T20:42:40.982Z,76.79
2023-04-02T20:45:09.513Z,77.13
2023-04-02T20:47:36.910Z,77.34
2023-04-02T20:50:04.566Z,77.61
2023-04-02T20:52:33.885Z,77.47
2023-04-02T20:55:02.173Z,77.54
2023-04-02T20:57:30.903Z,78.05
2023-04-02T20:59:59.372Z,77.75
2023-04-02T21:02:26.647Z,77.27
2023-04-02T21:04:53.860Z,77.08
2023-04-02T21:07:21.133Z,76.87
2023-04-02T21:09:48.413Z,76.34
2023-04-02T21:12:16.428Z,76.29
2023-04-02T21:14:43.647Z,76.06
2023-04-02T21:17:11.496Z,76.04
2023-04-02T21:19:38.662Z,76.41
2023-04-02T21:22:06.052Z,77.35
2023-04-02T21:24:33.309Z,77.90
2023-04-02T21:27:01.341Z,78.38
2023-04-02T21:29:28.558Z,79.11
2023-04-02T21:31:55.810Z,79.75
2023-04-02T21:34:23.132Z,80.17
2023-04-02T21:36:50.882Z,80.44
2023-04-02T21:39:21.704Z,80.99
2023-04-02T21:41:51.278Z,81.31
2023-04-02T21:44:22.860Z,81.69
2023-04-02T21:46:52.979Z,81.71
2023-04-02T21:49:26.757Z,82.17
2023-04-02T21:51:54.447Z,82.14
2023-04-02T21:54:21.936Z,82.17
2023-04-02T21:56:50.216Z,82.46
2023-04-02T21:59:18.569Z,82.70
2023-04-02T22:01:49.000Z,83.11
2023-04-02T22:04:25.709Z,83.39
2023-04-02T22:06:54.073Z,83.15
2023-04-02T22:09:25.015Z,83.87
2023-04-02T22:11:55.757Z,83.93
2023-04-02T22:14:23.518Z,84.72
2023-04-02T22:16:50.945Z,84.95
2023-04-02T22:19:18.226Z,84.93
2023-04-02T22:21:46.539Z,84.66
2023-04-02T22:24:16.433Z,84.23
2023-04-02T22:26:44.669Z,84.05
2023-04-02T22:29:11.984Z,84.56
2023-04-02T22:31:39.214Z,83.62
2023-04-02T22:34:07.532Z,83.13
2023-04-02T22:36:35.630Z,82.29
2023-04-02T22:39:06.064Z,82.64
2023-04-02T22:41:33.675Z,82.24
2023-04-02T22:44:01.984Z,81.82
2023-04-02T22:46:30.344Z,82.15
2023-04-02T22:48:57.852Z,82.21
2023-04-02T22:51:26.382Z,81.99
2023-04-02T22:53:55.798Z,82.59
2023-04-02T22:56:27.083Z,82.60
2023-04-02T22:58:54.259Z,82.81
2023-04-02T23:01:28.447Z,82.73
2023-04-02T23:03:56.670Z,82.61
2023-04-02T23:06:24.965Z,82.78
2023-04-02T23:08:52.545Z,82.66
2023-04-02T23:11:23.003Z,82.77
2023-04-02T23:13:52.572Z,82.64
2023-04-02T23:16:21.665Z,82.10
2023-04-02T23:18:50.143Z,82.21
2023-04-02T23:21:18.948Z,82.41
2023-04-02T23:23:46.700Z,82.53
2023-04-02T23:26:18.316Z,82.62
2023-04-02T23:28:46.128Z,82.70
2023-04-02T23:31:17.098Z,82.20
2023-04-02T23:33:44.432Z,81.84
2023-04-02T23:36:16.759Z,81.77
2023-04-02T23:38:43.866Z,81.39
2023-04-02T23:41:17.912Z,81.24
2023-04-02T23:43:45.208Z,81.36
2023-04-02T23:46:12.558Z,81.37
2023-04-02T23:48:40.425Z,82.00
2023-04-02T23:51:07.701Z,80.91
2023-04-02T23:53:35.649Z,81.24
2023-04-02T23:56:02.918Z,80.63
2023-04-02T23:58:30.232Z,80.33
